^^
Grace C. Lehan Memorial Weather Station Historical Data
Daily Summary for March 03, 2021 Units:  Metric    English   Both
Daily Weekly Monthly Yearly
  High: Low: Average:
Temperature: 9.3 °C -4.3 °C 3.3 °C
Dew Point: -1.8 °C -12.6 °C -6.5 °C
Humidity: 64% 37% 50%
Wind Speed: 14.5km/h 0km/h 1.4km/h
Wind Gust: 24.1km/h - -
Wind- - West
Pressure: 1015.5 hPa 1008 hPa -
Precipitation: 0 mm    
 
 
Tabular Data for March 03, 2021
Time Temperature Dew Point Pressure Wind Wind Speed Wind Gust Humidity Rainfall Rate (Hourly) solar
00:04 -4.3 °C -12.6 °C 1015.5 hPa Calm     52.7% 0 mm 0 W/m2
00:09 -4.3 °C -12.5 °C 1015.1 hPa Calm     52.8% 0 mm 0 W/m2
00:13 -4.3 °C -12.5 °C 1015.1 hPa Calm     52.6% 0 mm 0 W/m2
00:19 -4.2 °C -12.4 °C 1015.1 hPa Calm     53% 0 mm 0 W/m2
00:24 -4.2 °C -12.3 °C 1015.1 hPa Calm     53% 0 mm 0 W/m2
00:29 -4.2 °C -12.3 °C 1015.1 hPa Calm     53% 0 mm 0 W/m2
00:34 -4.1 °C -12.1 °C 1015.1 hPa Calm     53.9% 0 mm 0 W/m2
00:39 -4.1 °C -11.9 °C 1015.5 hPa Calm     54.2% 0 mm 0 W/m2
00:44 -4 °C -11.7 °C 1015.5 hPa Calm     55% 0 mm 0 W/m2
00:49 -4 °C -11.7 °C 1015.5 hPa Calm     55% 0 mm 0 W/m2
00:54 -4 °C -11.7 °C 1015.5 hPa Calm     55% 0 mm 0 W/m2
00:59 -4 °C -11.5 °C 1015.5 hPa Calm     55.8% 0 mm 0 W/m2
01:04 -3.9 °C -11.4 °C 1015.5 hPa Calm     56% 0 mm 0 W/m2
01:09 -3.9 °C -11.4 °C 1015.5 hPa Calm     55.9% 0 mm 0 W/m2
01:14 -3.9 °C -11.5 °C 1015.1 hPa Calm     55.7% 0 mm 0 W/m2
01:19 -3.9 °C -11.3 °C 1015.1 hPa Calm     56.6% 0 mm 0 W/m2
01:24 -3.9 °C -11.3 °C 1015.1 hPa Calm     56.2% 0 mm 0 W/m2
01:29 -3.9 °C -11.4 °C 1015.1 hPa Calm     56% 0 mm 0 W/m2
01:34 -3.8 °C -11.4 °C 1015.1 hPa Calm     55.7% 0 mm 0 W/m2
01:39 -3.8 °C -11.7 °C 1015.1 hPa Calm     53.9% 0 mm 0 W/m2
01:44 -3.7 °C -11.8 °C 1014.8 hPa Calm     53.1% 0 mm 0 W/m2
01:49 -3.6 °C -11.7 °C 1014.8 hPa Calm     53% 0 mm 0 W/m2
01:54 -3.4 °C -11.4 °C 1014.4 hPa Calm     53.8% 0 mm 0 W/m2
01:59 -3.3 °C -11.6 °C 1014.4 hPa Calm     53% 0 mm 0 W/m2
02:04 -3.3 °C -11.5 °C 1014.4 hPa Calm     53% 0 mm 0 W/m2
02:09 -3.2 °C -11.6 °C 1014.4 hPa Calm     52.4% 0 mm 0 W/m2
02:14 -3.2 °C -11.4 °C 1014.4 hPa Calm     53% 0 mm 0 W/m2
02:19 -3.2 °C -11.3 °C 1014.1 hPa Calm     53.5% 0 mm 0 W/m2
02:24 -3.2 °C -11.4 °C 1014.1 hPa Calm     53% 0 mm 0 W/m2
02:29 -3.1 °C -11.1 °C 1014.1 hPa Calm     53.9% 0 mm 0 W/m2
02:34 -3.1 °C -11.1 °C 1014.1 hPa Calm     54% 0 mm 0 W/m2
02:39 -3.1 °C -10.9 °C 1014.1 hPa Calm     54.5% 0 mm 0 W/m2
02:44 -3.1 °C -10.6 °C 1013.8 hPa Calm     56.1% 0 mm 0 W/m2
02:48 -3 °C -10.3 °C 1013.8 hPa Calm     57% 0 mm 0 W/m2
02:54 -2.9 °C -10.2 °C 1013.8 hPa Calm     57.4% 0 mm 0 W/m2
02:59 -2.9 °C -10.1 °C 1013.8 hPa Calm     57.6% 0 mm 0 W/m2
03:04 -2.9 °C -10.3 °C 1013.8 hPa Calm     56.4% 0 mm 0 W/m2
03:09 -2.8 °C -10.6 °C 1013.8 hPa Calm     55% 0 mm 0 W/m2
03:14 -2.8 °C -10.6 °C 1013.4 hPa Calm     55% 0 mm 0 W/m2
03:19 -2.7 °C -10.5 °C 1013.8 hPa Calm     55% 0 mm 0 W/m2
03:24 -2.6 °C -10.4 °C 1013.4 hPa Calm     55% 0 mm 0 W/m2
03:29 -2.6 °C -10.2 °C 1013.4 hPa Calm     55.9% 0 mm 0 W/m2
03:34 -2.6 °C -10.1 °C 1013.1 hPa Calm     56% 0 mm 0 W/m2
03:39 -2.5 °C -10.1 °C 1013.1 hPa Calm     56% 0 mm 0 W/m2
03:44 -2.4 °C -10.2 °C 1013.1 hPa Calm   1.6 km/h 55.3% 0 mm 0 W/m2
03:49 -2.4 °C -10.3 °C 1013.1 hPa Calm   1.6 km/h 54.3% 0 mm 0 W/m2
03:54 -2.3 °C -10.2 °C 1012.8 hPa Calm   1.6 km/h 54.6% 0 mm 0 W/m2
03:59 -2.2 °C -10 °C 1012.8 hPa Calm   1.6 km/h 55% 0 mm 0 W/m2
04:00 -2.2 °C -10 °C 1012.8 hPa Calm   1.6 km/h 55% 0 mm 0 W/m2
04:09 -2.1 °C -9.9 °C 1012.8 hPa West 2.4 km/h 6.4 km/h 55.2% 0 mm 0 W/m2
04:14 -2.1 °C -9.7 °C 1012.8 hPa West 3.2 km/h 6.4 km/h 55.9% 0 mm 0 W/m2
04:19 -2 °C -9.8 °C 1012.8 hPa West 2.1 km/h 6.4 km/h 55.3% 0 mm 0 W/m2
04:24 -1.9 °C -9.7 °C 1012.8 hPa West 4 km/h 6.4 km/h 55.4% 0 mm 0 W/m2
04:29 -1.9 °C -9.7 °C 1012.4 hPa WSW 4 km/h 8 km/h 55% 0 mm 0 W/m2
04:34 -1.8 °C -9.7 °C 1012.4 hPa WSW 4.3 km/h 8 km/h 55% 0 mm 0 W/m2
04:39 -1.7 °C -9.6 °C 1012.1 hPa SW 3.2 km/h 6.4 km/h 55% 0 mm 0 W/m2
04:44 -1.7 °C -9.6 °C 1012.1 hPa SW 0.3 km/h 6.4 km/h 55% 0 mm 0 W/m2
04:49 -1.7 °C -9.5 °C 1012.1 hPa Calm   6.4 km/h 55.2% 0 mm 0 W/m2
04:54 -1.7 °C -9.4 °C 1012.4 hPa Calm   6.4 km/h 55.4% 0 mm 0 W/m2
04:59 -1.7 °C -9.3 °C 1012.4 hPa Calm   6.4 km/h 56% 0 mm 0 W/m2
05:04 -1.7 °C -9.1 °C 1012.4 hPa Calm   6.4 km/h 57% 0 mm 0 W/m2
05:09 -1.8 °C -9.2 °C 1012.4 hPa Calm     56.6% 0 mm 0 W/m2
05:14 -1.8 °C -9.4 °C 1012.4 hPa Calm     56% 0 mm 0 W/m2
05:19 -1.8 °C -9.4 °C 1012.4 hPa Calm     56% 0 mm 0 W/m2
05:24 -1.9 °C -9.4 °C 1012.4 hPa Calm     56.2% 0 mm 0 W/m2
05:29 -1.9 °C -9.4 °C 1012.1 hPa Calm     56.7% 0 mm 0 W/m2
05:34 -1.9 °C -9.4 °C 1012.1 hPa Calm     56.4% 0 mm 0 W/m2
05:39 -1.9 °C -9.3 °C 1012.1 hPa Calm     57% 0 mm 0 W/m2
05:44 -1.9 °C -9.3 °C 1012.1 hPa Calm     57% 0 mm 0 W/m2
05:49 -1.9 °C -9.3 °C 1012.1 hPa Calm     57% 0 mm 0 W/m2
05:54 -1.9 °C -9.3 °C 1012.1 hPa Calm     57% 0 mm 0 W/m2
05:59 -1.9 °C -9.3 °C 1012.1 hPa Calm     57% 0 mm 0 W/m2
06:04 -2 °C -9.4 °C 1012.1 hPa Calm     57% 0 mm 0 W/m2
06:09 -2.1 °C -9.4 °C 1012.1 hPa Calm     57% 0 mm 0 W/m2
06:13 -2.1 °C -9.2 °C 1011.7 hPa Calm     57.9% 0 mm 0 W/m2
06:19 -2.2 °C -9.3 °C 1011.7 hPa Calm     58% 0 mm 0 W/m2
06:24 -2.2 °C -9.3 °C 1011.7 hPa Calm     58% 0 mm 0 W/m2
06:29 -2.2 °C -9.3 °C 1011.7 hPa Calm     58% 0 mm 5 W/m2
06:34 -2.2 °C -9.4 °C 1011.7 hPa Calm     57.7% 0 mm 12 W/m2
06:39 -2.1 °C -9.3 °C 1011.7 hPa Calm     57.9% 0 mm 23 W/m2
06:44 -1.9 °C -9.1 °C 1011.7 hPa Calm     58.3% 0 mm 33 W/m2
06:49 -1.8 °C -8.8 °C 1011.7 hPa Calm     58.7% 0 mm 35 W/m2
06:54 -1.7 °C -8.8 °C 1011.7 hPa Calm     58% 0 mm 37 W/m2
06:59 -1.5 °C -8.8 °C 1011.7 hPa Calm     57.2% 0 mm 26 W/m2
07:04 -1.4 °C -9.1 °C 1011.7 hPa Calm     56% 0 mm 42 W/m2
07:09 -1.3 °C -9 °C 1011.7 hPa Calm     56% 0 mm 88 W/m2
07:14 -1.2 °C -8.7 °C 1011.7 hPa Calm     56.7% 0 mm 93 W/m2
07:19 -0.9 °C -8.3 °C 1011.7 hPa Calm     57% 0 mm 123 W/m2
07:24 -0.6 °C -8.2 °C 1011.7 hPa Calm     56.3% 0 mm 127 W/m2
07:29 -0.3 °C -8.3 °C 1011.7 hPa Calm     55% 0 mm 118 W/m2
07:34 -0.2 °C -8.1 °C 1011.4 hPa Calm     55% 0 mm 123 W/m2
07:39 0 °C -8.2 °C 1011.4 hPa Calm     54.2% 0 mm 165 W/m2
07:44 0.1 °C -8.2 °C 1011.7 hPa Calm     53.5% 0 mm 67 W/m2
07:49 0.1 °C -8.4 °C 1011.7 hPa Calm     53% 0 mm 67 W/m2
07:54 0.1 °C -8.3 °C 1011.7 hPa Calm     53.4% 0 mm 65 W/m2
07:59 0.1 °C -8.3 °C 1011.7 hPa Calm     53.1% 0 mm 105 W/m2
08:00 0.1 °C -8.1 °C 1011.4 hPa Calm     54% 0 mm 58 W/m2
08:09 0.3 °C -8.1 °C 1011.7 hPa SW 0.2 km/h 3.2 km/h 53% 0 mm 141 W/m2
08:13 0.5 °C -8 °C 1011.4 hPa Calm   3.2 km/h 52.7% 0 mm 69 W/m2
08:19 0.7 °C -7.9 °C 1011.4 hPa Calm   3.2 km/h 52.2% 0 mm 109 W/m2
08:24 0.9 °C -7.7 °C 1011.4 hPa Calm   3.2 km/h 52.6% 0 mm 90 W/m2
08:29 1.2 °C -7.4 °C 1011.4 hPa Calm   3.2 km/h 52.5% 0 mm 313 W/m2
08:34 1.7 °C -7.3 °C 1011.4 hPa Calm   3.2 km/h 51.3% 0 mm 299 W/m2
08:39 2.3 °C -7.2 °C 1011.4 hPa SW 0.3 km/h 3.2 km/h 49.8% 0 mm 257 W/m2
08:44 2.8 °C -7 °C 1011.1 hPa SW 0.2 km/h 3.2 km/h 48.3% 0 mm 206 W/m2
08:49 3.3 °C -7.1 °C 1011.1 hPa SW 0.3 km/h 3.2 km/h 46.4% 0 mm 218 W/m2
08:54 3.7 °C -6.9 °C 1011.1 hPa WSW 0.6 km/h 6.4 km/h 45.7% 0 mm 318 W/m2
08:59 4 °C -7.2 °C 1011.1 hPa WSW 0.6 km/h 6.4 km/h 43.8% 0 mm 350 W/m2
09:04 4.2 °C -7.1 °C 1011.1 hPa WSW 0.5 km/h 6.4 km/h 43.4% 0 mm 348 W/m2
09:09 4.4 °C -7.1 °C 1011.1 hPa Calm   6.4 km/h 43.1% 0 mm 313 W/m2
09:14 4.6 °C -7.2 °C 1011.1 hPa Calm   6.4 km/h 42% 0 mm 341 W/m2
09:19 4.8 °C -7.4 °C 1010.7 hPa Calm   6.4 km/h 40.7% 0 mm 353 W/m2
09:24 5 °C -7.5 °C 1010.7 hPa WSW 0.5 km/h 6.4 km/h 40.1% 0 mm 429 W/m2
09:29 5 °C -7.5 °C 1010.7 hPa Calm   6.4 km/h 39.8% 0 mm 387 W/m2
09:34 5.1 °C -7.4 °C 1010.7 hPa WSW 0.2 km/h 6.4 km/h 40% 0 mm 381 W/m2
09:39 5.1 °C -7.8 °C 1010.7 hPa SW 0.6 km/h 4.8 km/h 38.9% 0 mm 325 W/m2
09:44 4.9 °C -7.6 °C 1010.7 hPa SW 0.2 km/h 4.8 km/h 39.7% 0 mm 325 W/m2
09:49 5 °C -7.2 °C 1010.4 hPa Calm   4.8 km/h 40.7% 0 mm 510 W/m2
09:54 5.3 °C -7.1 °C 1010.4 hPa SW 0.3 km/h 4.8 km/h 40.4% 0 mm 598 W/m2
09:59 5.8 °C -6.4 °C 1010.4 hPa WSW 0.5 km/h 4.8 km/h 40.8% 0 mm 598 W/m2
10:04 6.3 °C -6.7 °C 1010.4 hPa WSW 0.2 km/h 4.8 km/h 38.9% 0 mm 598 W/m2
10:09 6.7 °C -6.8 °C 1010.4 hPa WSW 0.8 km/h 4.8 km/h 37.7% 0 mm 621 W/m2
10:14 6.8 °C -6.1 °C 1010 hPa WSW 0.6 km/h 6.4 km/h 39.1% 0 mm 577 W/m2
10:19 7 °C -6.5 °C 1010 hPa WSW 1.8 km/h 6.4 km/h 37.4% 0 mm 643 W/m2
10:24 7.3 °C -5.7 °C 1010 hPa WSW 0.3 km/h 6.4 km/h 39.2% 0 mm 656 W/m2
10:29 7.6 °C -5.9 °C 1010 hPa WSW 1.6 km/h 14.5 km/h 37.8% 0 mm 663 W/m2
10:34 7.8 °C -5.6 °C 1010 hPa West 6.9 km/h 16.1 km/h 38.1% 0 mm 671 W/m2
10:39 7.9 °C -5.8 °C 1010 hPa WSW 4.2 km/h 17.7 km/h 37.1% 0 mm 626 W/m2
10:44 8.2 °C -5.3 °C 1010 hPa WNW 2.1 km/h 17.7 km/h 38% 0 mm 490 W/m2
10:49 8.3 °C -5.2 °C 1010 hPa WNW 5.8 km/h 17.7 km/h 37.9% 0 mm 506 W/m2
10:54 8.4 °C -5.4 °C 1010 hPa West 3.7 km/h 17.7 km/h 37% 0 mm 415 W/m2
10:59 8.4 °C -5.2 °C 1009.7 hPa WNW 7.7 km/h 24.1 km/h 37.8% 0 mm 341 W/m2
11:04 8.3 °C -5.4 °C 1009.7 hPa WNW 7.1 km/h 24.1 km/h 37.2% 0 mm 364 W/m2
11:09 8.2 °C -5.6 °C 1009.7 hPa WNW 7.4 km/h 17.7 km/h 37% 0 mm 162 W/m2
11:14 8.1 °C -5.2 °C 1009.7 hPa WNW 3.1 km/h 17.7 km/h 38.2% 0 mm 211 W/m2
11:19 8.2 °C -5.5 °C 1009.7 hPa WSW 6 km/h 19.3 km/h 37.5% 0 mm 250 W/m2
11:24 8.1 °C -5.5 °C 1009.7 hPa WNW 4 km/h 19.3 km/h 37.8% 0 mm 188 W/m2
11:29 8.1 °C -5.4 °C 1009.7 hPa West 4.7 km/h 19.3 km/h 38.1% 0 mm 206 W/m2
11:34 8.1 °C -5.6 °C 1009.7 hPa WNW 5.1 km/h 19.3 km/h 37.6% 0 mm 241 W/m2
11:39 8.1 °C -5.2 °C 1009.4 hPa WSW 1 km/h 16.1 km/h 38.5% 0 mm 318 W/m2
11:44 8.3 °C -4.6 °C 1009.7 hPa WNW 6.4 km/h 17.7 km/h 39.8% 0 mm 733 W/m2
11:49 8.5 °C -5.2 °C 1009.4 hPa WNW 8.5 km/h 19.3 km/h 37.5% 0 mm 733 W/m2
11:54 8.4 °C -5.1 °C 1009.4 hPa WNW 6.6 km/h 19.3 km/h 37.7% 0 mm 221 W/m2
11:59 8.4 °C -5.4 °C 1009.4 hPa WNW 8 km/h 24.1 km/h 37.1% 0 mm 443 W/m2
12:00 8.4 °C -5.4 °C 1009 hPa WNW 14.5 km/h 24.1 km/h 37% 0 mm 411 W/m2
12:08 8.3 °C -5.3 °C 1009.4 hPa Calm     37.4% 0 mm 176 W/m2
12:14 8.3 °C -5.2 °C 1009 hPa West 1.1 km/h 8 km/h 37.8% 0 mm 77 W/m2
12:19 8.4 °C -4.8 °C 1009 hPa SW 2.3 km/h 8 km/h 38.7% 0 mm 234 W/m2
12:24 8.6 °C -4.9 °C 1009 hPa WNW 3.5 km/h 17.7 km/h 38% 0 mm 234 W/m2
12:29 8.6 °C -5.1 °C 1009 hPa WNW 7.4 km/h 19.3 km/h 37.6% 0 mm 125 W/m2
12:34 8.6 °C -5.1 °C 1009 hPa WNW 4 km/h 19.3 km/h 37.7% 0 mm 722 W/m2
12:39 8.6 °C -4.9 °C 1009 hPa West 2.4 km/h 16.1 km/h 38.1% 0 mm 722 W/m2
12:44 8.7 °C -4.7 °C 1008.7 hPa WSW 2.1 km/h 16.1 km/h 38.4% 0 mm 411 W/m2
12:49 8.8 °C -4.1 °C 1008.7 hPa WSW 2.4 km/h 16.1 km/h 39.8% 0 mm 255 W/m2
12:54 8.7 °C -4.7 °C 1008.7 hPa WNW 9.5 km/h 20.9 km/h 38.2% 0 mm 183 W/m2
12:59 8.7 °C -4.9 °C 1008.7 hPa WSW 2.4 km/h 20.9 km/h 37.9% 0 mm 332 W/m2
13:04 8.7 °C -4.6 °C 1008.7 hPa West 4.5 km/h 20.9 km/h 38.7% 0 mm 81 W/m2
13:09 8.7 °C -4.4 °C 1008.4 hPa NW 2.7 km/h 17.7 km/h 39.4% 0 mm 84 W/m2
13:14 8.7 °C -4.6 °C 1008.4 hPa WNW 11.9 km/h 24.1 km/h 38.7% 0 mm 250 W/m2
13:19 8.7 °C -4.8 °C 1008.4 hPa WNW 8.7 km/h 24.1 km/h 38% 0 mm 190 W/m2
13:24 8.7 °C -4.7 °C 1008.4 hPa WNW 8.9 km/h 24.1 km/h 38.5% 0 mm 77 W/m2
13:29 8.7 °C -4.4 °C 1008.4 hPa West 8.7 km/h 24.1 km/h 39% 0 mm 167 W/m2
13:34 8.8 °C -4.6 °C 1008.4 hPa WNW 9 km/h 24.1 km/h 38.4% 0 mm 246 W/m2
13:39 8.8 °C -4.5 °C 1008 hPa WNW 8.2 km/h 24.1 km/h 38.7% 0 mm 429 W/m2
13:44 8.8 °C -4.6 °C 1008 hPa NW 12.6 km/h 24.1 km/h 38.3% 0 mm 265 W/m2
13:49 8.7 °C -4.7 °C 1008 hPa NW 3.4 km/h 24.1 km/h 38.3% 0 mm 163 W/m2
13:54 8.8 °C -4.3 °C 1008 hPa West 5.8 km/h 24.1 km/h 39.3% 0 mm 165 W/m2
13:59 8.8 °C -4.3 °C 1008 hPa West 5.3 km/h 24.1 km/h 39% 0 mm 174 W/m2
14:04 8.9 °C -4.4 °C 1008 hPa WNW 4.3 km/h 24.1 km/h 38.6% 0 mm 174 W/m2
14:09 9 °C -4.3 °C 1008 hPa WNW 7.2 km/h 17.7 km/h 38.7% 0 mm 77 W/m2
14:14 9.1 °C -4.3 °C 1008 hPa WNW 4.3 km/h 17.7 km/h 38.8% 0 mm 77 W/m2
14:19 9 °C -4.3 °C 1008 hPa WNW 4.2 km/h 17.7 km/h 38.8% 0 mm 109 W/m2
14:24 9 °C -4.4 °C 1008.4 hPa WSW 3.7 km/h 17.7 km/h 38.3% 0 mm 160 W/m2
14:29 9.1 °C -4.5 °C 1008.4 hPa WSW 4.7 km/h 17.7 km/h 38% 0 mm 315 W/m2
14:34 9.1 °C -4.3 °C 1008.4 hPa West 3.4 km/h 17.7 km/h 38.6% 0 mm 149 W/m2
14:39 9.2 °C -4.5 °C 1008.4 hPa West 6.4 km/h 22.5 km/h 37.8% 0 mm 332 W/m2
14:44 9.1 °C -4.6 °C 1008 hPa WNW 7.7 km/h 22.5 km/h 37.5% 0 mm 345 W/m2
14:49 9.1 °C -4.6 °C 1008 hPa NW 3.1 km/h 22.5 km/h 37.8% 0 mm 294 W/m2
14:54 9.1 °C -4.3 °C 1008 hPa WNW 6.9 km/h 22.5 km/h 38.4% 0 mm 304 W/m2
14:59 9.2 °C -4.4 °C 1008 hPa NW 1.1 km/h 22.5 km/h 38.1% 0 mm 221 W/m2
15:04 9.2 °C -4.1 °C 1008 hPa West 2.6 km/h 22.5 km/h 38.7% 0 mm 301 W/m2
15:09 9.3 °C -4.1 °C 1008 hPa WNW 3.1 km/h 17.7 km/h 38.6% 0 mm 54 W/m2
15:14 9.3 °C -4.5 °C 1008 hPa WNW 7.6 km/h 17.7 km/h 37.5% 0 mm 44 W/m2
15:19 9.2 °C -4.6 °C 1008 hPa WNW 1 km/h 17.7 km/h 37.6% 0 mm 42 W/m2
15:24 9.2 °C -4.3 °C 1008 hPa West 4.2 km/h 19.3 km/h 38.5% 0 mm 42 W/m2
15:29 9.1 °C -4.3 °C 1008 hPa WSW 2.3 km/h 19.3 km/h 38.6% 0 mm 40 W/m2
15:34 9 °C -4.2 °C 1008 hPa WSW 1 km/h 19.3 km/h 39.2% 0 mm 40 W/m2
15:39 8.9 °C -4.1 °C 1008 hPa West 2.4 km/h 11.3 km/h 39.6% 0 mm 39 W/m2
15:44 8.9 °C -4.3 °C 1008 hPa West 3.9 km/h 17.7 km/h 39% 0 mm 39 W/m2
15:49 8.9 °C -4.3 °C 1008 hPa West 2.9 km/h 17.7 km/h 39% 0 mm 37 W/m2
15:54 8.9 °C -4.4 °C 1008 hPa WNW 0.3 km/h 17.7 km/h 38.6% 0 mm 37 W/m2
15:59 8.8 °C -4.3 °C 1008 hPa West 2.9 km/h 17.7 km/h 39% 0 mm 35 W/m2
16:00 8.8 °C -4.3 °C 1008 hPa WSW 8 km/h 17.7 km/h 39% 0 mm 33 W/m2
16:09 8.8 °C -4.3 °C 1008 hPa WSW 0.8 km/h 6.4 km/h 39.2% 0 mm 33 W/m2
16:14 8.8 °C -4.4 °C 1008 hPa WSW 0.2 km/h 6.4 km/h 39% 0 mm 32 W/m2
16:19 8.8 °C -4.3 °C 1008 hPa West 1.1 km/h 6.4 km/h 39.2% 0 mm 32 W/m2
16:24 8.7 °C -4.1 °C 1008 hPa WNW 0.5 km/h 11.3 km/h 40% 0 mm 30 W/m2
16:29 8.7 °C -4 °C 1008 hPa WNW 0.2 km/h 11.3 km/h 40.4% 0 mm 30 W/m2
16:34 8.6 °C -3.9 °C 1008 hPa Calm   11.3 km/h 41% 0 mm 28 W/m2
16:39 8.6 °C -4.1 °C 1008 hPa West 1.6 km/h 11.3 km/h 40.7% 0 mm 26 W/m2
16:44 8.5 °C -4.2 °C 1008 hPa WNW 2.9 km/h 11.3 km/h 40.3% 0 mm 26 W/m2
16:49 8.5 °C -4.3 °C 1008 hPa WNW 4.3 km/h 16.1 km/h 40.2% 0 mm 25 W/m2
16:54 8.4 °C -4.4 °C 1008 hPa WNW 3.9 km/h 16.1 km/h 40% 0 mm 23 W/m2
16:59 8.3 °C -4.4 °C 1008 hPa WNW 0.6 km/h 16.1 km/h 40.1% 0 mm 21 W/m2
17:04 8.3 °C -4.3 °C 1008.4 hPa WNW 0.6 km/h 16.1 km/h 40.5% 0 mm 21 W/m2
17:09 8.2 °C -4.2 °C 1008.4 hPa WNW 3.2 km/h 11.3 km/h 41% 0 mm 19 W/m2
17:14 8.2 °C -4.3 °C 1008.4 hPa WNW 2.4 km/h 11.3 km/h 41% 0 mm 18 W/m2
17:19 8.1 °C -4.4 °C 1008.4 hPa WNW 1.3 km/h 11.3 km/h 41% 0 mm 14 W/m2
17:24 8 °C -4.2 °C 1008.4 hPa WNW 0.6 km/h 11.3 km/h 41.9% 0 mm 12 W/m2
17:29 7.9 °C -4.2 °C 1008.4 hPa WNW 0.5 km/h 11.3 km/h 42% 0 mm 11 W/m2
17:34 7.8 °C -4.3 °C 1008.4 hPa Calm   11.3 km/h 42% 0 mm 7 W/m2
17:39 7.7 °C -4.4 °C 1008.4 hPa Calm     42% 0 mm 5 W/m2
17:44 7.6 °C -4.4 °C 1008.7 hPa Calm     42.3% 0 mm 0 W/m2
17:49 7.4 °C -4.4 °C 1008.7 hPa WNW 0.6 km/h 4.8 km/h 42.7% 0 mm 0 W/m2
17:54 7.3 °C -4.4 °C 1008.7 hPa Calm   4.8 km/h 43% 0 mm 0 W/m2
17:59 7.2 °C -4.4 °C 1009 hPa Calm   4.8 km/h 43.4% 0 mm 0 W/m2
18:04 7.1 °C -4.3 °C 1009 hPa Calm   4.8 km/h 44% 0 mm 0 W/m2
18:08 7 °C -4.4 °C 1009 hPa Calm     44% 0 mm 0 W/m2
18:14 6.8 °C -4.5 °C 1009 hPa Calm     44.2% 0 mm 0 W/m2
18:19 6.7 °C -4.4 °C 1009 hPa Calm     45% 0 mm 0 W/m2
18:24 6.6 °C -4.5 °C 1009 hPa Calm     45% 0 mm 0 W/m2
18:29 6.4 °C -4.7 °C 1009 hPa Calm     45% 0 mm 0 W/m2
18:34 6.3 °C -4.6 °C 1009 hPa Calm     45.7% 0 mm 0 W/m2
18:39 6.2 °C -4.2 °C 1009 hPa Calm     47.6% 0 mm 0 W/m2
18:43 6 °C -4.4 °C 1009 hPa Calm     47.1% 0 mm 0 W/m2
18:49 5.9 °C -4.3 °C 1009 hPa Calm     48% 0 mm 0 W/m2
18:54 5.8 °C -4.3 °C 1009 hPa Calm     48.3% 0 mm 0 W/m2
18:59 5.7 °C -4.2 °C 1009 hPa Calm     49% 0 mm 0 W/m2
19:04 5.6 °C -4.3 °C 1009 hPa Calm     49% 0 mm 0 W/m2
19:09 5.4 °C -4.3 °C 1009 hPa Calm     49.3% 0 mm 0 W/m2
19:14 5.3 °C -4.2 °C 1009 hPa Calm     50.1% 0 mm 0 W/m2
19:19 5.2 °C -3.9 °C 1009 hPa Calm     51.8% 0 mm 0 W/m2
19:24 4.9 °C -3.8 °C 1009 hPa Calm     52.9% 0 mm 0 W/m2
19:29 4.7 °C -4 °C 1009 hPa Calm     53% 0 mm 0 W/m2
19:34 4.6 °C -4.2 °C 1009 hPa Calm     53% 0 mm 0 W/m2
19:39 4.4 °C -4.4 °C 1009 hPa Calm     53% 0 mm 0 W/m2
19:44 4.2 °C -4.5 °C 1009 hPa Calm     53% 0 mm 0 W/m2
19:49 4.2 °C -4.3 °C 1009 hPa Calm     54% 0 mm 0 W/m2
19:54 4.1 °C -3.8 °C 1009 hPa WNW 0.2 km/h 1.6 km/h 56.3% 0 mm 0 W/m2
19:59 4 °C -4.1 °C 1009 hPa WNW 0.5 km/h 3.2 km/h 55.4% 0 mm 0 W/m2
20:00 3.9 °C -4.3 °C 1009 hPa Calm   3.2 km/h 55% 0 mm 0 W/m2
20:09 4.1 °C -4.1 °C 1009 hPa WNW 0.2 km/h 1.6 km/h 55.2% 0 mm 0 W/m2
20:14 4.1 °C -3.9 °C 1009 hPa Calm   1.6 km/h 56% 0 mm 0 W/m2
20:19 4.1 °C -3.9 °C 1009 hPa Calm   1.6 km/h 56.3% 0 mm 0 W/m2
20:24 3.9 °C -4.1 °C 1009 hPa Calm   1.6 km/h 56% 0 mm 0 W/m2
20:29 3.8 °C -4.1 °C 1009 hPa Calm   1.6 km/h 56% 0 mm 0 W/m2
20:34 3.7 °C -4.1 °C 1009 hPa Calm   1.6 km/h 56.6% 0 mm 0 W/m2
20:39 3.5 °C -4 °C 1009 hPa Calm     58% 0 mm 0 W/m2
20:44 3.3 °C -4.1 °C 1009 hPa Calm     58.5% 0 mm 0 W/m2
20:49 3.1 °C -4.1 °C 1009 hPa Calm     59.3% 0 mm 0 W/m2
20:54 3 °C -4 °C 1009 hPa Calm     60% 0 mm 0 W/m2
20:59 2.9 °C -4.1 °C 1009 hPa Calm     60% 0 mm 0 W/m2
21:04 2.8 °C -4.3 °C 1009 hPa Calm     59.1% 0 mm 0 W/m2
21:09 2.8 °C -4.3 °C 1009 hPa Calm     59.6% 0 mm 0 W/m2
21:14 2.7 °C -4 °C 1009 hPa Calm     61.3% 0 mm 0 W/m2
21:19 2.6 °C -3.9 °C 1009.4 hPa WNW 0.6 km/h 3.2 km/h 62% 0 mm 0 W/m2
21:24 2.4 °C -3.9 °C 1009 hPa WNW 0.3 km/h 3.2 km/h 62.8% 0 mm 0 W/m2
21:29 2.3 °C -3.9 °C 1009 hPa Calm   3.2 km/h 63% 0 mm 0 W/m2
21:34 2.3 °C -4.1 °C 1009 hPa WNW 0.2 km/h 3.2 km/h 63% 0 mm 0 W/m2
21:39 2.2 °C -4.1 °C 1009 hPa WNW 0.2 km/h 1.6 km/h 63% 0 mm 0 W/m2
21:44 2.2 °C -4.1 °C 1009 hPa WNW 0.3 km/h 1.6 km/h 63% 0 mm 0 W/m2
21:49 2.2 °C -4 °C 1009 hPa WNW 0.3 km/h 3.2 km/h 63.5% 0 mm 0 W/m2
21:54 2.2 °C -3.9 °C 1009 hPa Calm   3.2 km/h 64% 0 mm 0 W/m2
21:59 2.3 °C -3.8 °C 1009.4 hPa Calm   3.2 km/h 64% 0 mm 0 W/m2
22:04 2.4 °C -3.7 °C 1009 hPa Calm   3.2 km/h 63.8% 0 mm 0 W/m2
22:09 2.5 °C -3.6 °C 1009 hPa Calm     64% 0 mm 0 W/m2
22:14 2.7 °C -3.4 °C 1009 hPa Calm     64% 0 mm 0 W/m2
22:19 2.8 °C -3.3 °C 1009 hPa Calm     64% 0 mm 0 W/m2
22:24 2.9 °C -3.2 °C 1009 hPa Calm     64% 0 mm 0 W/m2
22:29 3.1 °C -3.3 °C 1008.7 hPa Calm     63% 0 mm 0 W/m2
22:34 3.2 °C -3.2 °C 1008.7 hPa Calm     63% 0 mm 0 W/m2
22:39 3.3 °C -3.1 °C 1008.7 hPa Calm     63% 0 mm 0 W/m2
22:44 3.4 °C -3 °C 1008.7 hPa Calm     63% 0 mm 0 W/m2
22:49 3.6 °C -3 °C 1009 hPa Calm     62% 0 mm 0 W/m2
22:54 3.7 °C -2.9 °C 1008.7 hPa WNW 0.2 km/h 3.2 km/h 61.8% 0 mm 0 W/m2
22:59 3.8 °C -3 °C 1008.7 hPa WNW 0.2 km/h 3.2 km/h 61% 0 mm 0 W/m2
23:04 4 °C -2.8 °C 1008.7 hPa Calm     61% 0 mm 0 W/m2
23:09 4 °C -2.8 °C 1008.7 hPa Calm     61% 0 mm 0 W/m2
23:14 4.1 °C -2.7 °C 1008.4 hPa WNW 1 km/h 11.3 km/h 61.3% 0 mm 0 W/m2
23:19 4.2 °C -2.4 °C 1008.4 hPa WNW 0.6 km/h 11.3 km/h 62% 0 mm 0 W/m2
23:24 4.3 °C -2.3 °C 1008.4 hPa NW 1.6 km/h 11.3 km/h 62% 0 mm 0 W/m2
23:29 4.3 °C -2.3 °C 1008.4 hPa NNW 2.7 km/h 11.3 km/h 62.1% 0 mm 0 W/m2
23:34 4.4 °C -1.9 °C 1008.4 hPa NW 2.1 km/h 11.3 km/h 63% 0 mm 0 W/m2
23:39 4.6 °C -1.9 °C 1008.4 hPa NW 1.4 km/h 8 km/h 63% 0 mm 0 W/m2
23:44 4.6 °C -2.1 °C 1008.4 hPa NW 0.6 km/h 8 km/h 62% 0 mm 0 W/m2
23:49 4.6 °C -1.8 °C 1008.4 hPa NW 1 km/h 8 km/h 63% 0 mm 0 W/m2
23:54 4.6 °C -1.9 °C 1008.4 hPa Calm   8 km/h 63% 0 mm 0 W/m2
23:59 4.6 °C -1.9 °C 1008.4 hPa NW 0.5 km/h 8 km/h 62.9% 0 mm 0 W/m2
Hartford County Weather
Compliments of Weather Underground - 4 mb